sensor_id;sensor_type;location;lat;lon;timestamp;P1;durP1;ratioP1;P2;durP2;ratioP2
4915;SDS011;70796;52.406;13.230;2024-03-08T00:00:35;33.53;;;16.67;;
4915;SDS011;70796;52.406;13.230;2024-03-08T00:03:05;30.10;;;16.13;;
4915;SDS011;70796;52.406;13.230;2024-03-08T00:05:31;33.57;;;17.40;;
4915;SDS011;70796;52.406;13.230;2024-03-08T00:07:58;32.60;;;16.50;;
4915;SDS011;70796;52.406;13.230;2024-03-08T00:10:26;31.50;;;16.40;;
4915;SDS011;70796;52.406;13.230;2024-03-08T00:12:57;29.97;;;16.50;;
4915;SDS011;70796;52.406;13.230;2024-03-08T00:15:25;33.90;;;16.37;;
4915;SDS011;70796;52.406;13.230;2024-03-08T00:17:51;30.93;;;15.70;;
4915;SDS011;70796;52.406;13.230;2024-03-08T00:20:19;29.57;;;17.20;;
4915;SDS011;70796;52.406;13.230;2024-03-08T00:22:46;30.10;;;16.03;;
4915;SDS011;70796;52.406;13.230;2024-03-08T00:25:13;33.23;;;17.27;;
4915;SDS011;70796;52.406;13.230;2024-03-08T00:27:41;32.40;;;16.60;;
4915;SDS011;70796;52.406;13.230;2024-03-08T00:30:08;28.87;;;17.03;;
4915;SDS011;70796;52.406;13.230;2024-03-08T00:32:36;30.87;;;17.57;;
4915;SDS011;70796;52.406;13.230;2024-03-08T00:35:05;28.70;;;16.47;;
4915;SDS011;70796;52.406;13.230;2024-03-08T00:37:35;28.00;;;16.10;;
4915;SDS011;70796;52.406;13.230;2024-03-08T00:40:02;34.37;;;17.57;;
4915;SDS011;70796;52.406;13.230;2024-03-08T00:42:29;31.73;;;18.03;;
4915;SDS011;70796;52.406;13.230;2024-03-08T00:44:56;29.60;;;16.93;;
4915;SDS011;70796;52.406;13.230;2024-03-08T00:47:24;32.40;;;16.70;;
4915;SDS011;70796;52.406;13.230;2024-03-08T00:49:51;35.60;;;18.40;;
4915;SDS011;70796;52.406;13.230;2024-03-08T00:52:20;36.93;;;18.20;;
4915;SDS011;70796;52.406;13.230;2024-03-08T00:54:47;35.10;;;18.40;;
4915;SDS011;70796;52.406;13.230;2024-03-08T00:57:13;31.23;;;17.63;;
4915;SDS011;70796;52.406;13.230;2024-03-08T00:59:40;32.43;;;16.50;;
4915;SDS011;70796;52.406;13.230;2024-03-08T01:02:07;33.37;;;18.33;;
4915;SDS011;70796;52.406;13.230;2024-03-08T01:04:34;39.10;;;17.50;;
4915;SDS011;70796;52.406;13.230;2024-03-08T01:07:01;29.70;;;16.53;;
4915;SDS011;70796;52.406;13.230;2024-03-08T01:09:31;29.10;;;17.60;;
4915;SDS011;70796;52.406;13.230;2024-03-08T01:11:58;34.00;;;18.03;;
4915;SDS011;70796;52.406;13.230;2024-03-08T01:14:27;43.67;;;18.93;;
4915;SDS011;70796;52.406;13.230;2024-03-08T01:16:57;35.67;;;18.03;;
4915;SDS011;70796;52.406;13.230;2024-03-08T01:19:23;38.63;;;19.30;;
4915;SDS011;70796;52.406;13.230;2024-03-08T01:21:50;34.77;;;20.40;;
4915;SDS011;70796;52.406;13.230;2024-03-08T01:24:17;38.07;;;18.70;;
4915;SDS011;70796;52.406;13.230;2024-03-08T01:26:43;31.23;;;18.37;;
4915;SDS011;70796;52.406;13.230;2024-03-08T01:29:10;37.97;;;20.33;;
4915;SDS011;70796;52.406;13.230;2024-03-08T01:31:36;39.27;;;20.63;;
4915;SDS011;70796;52.406;13.230;2024-03-08T01:34:03;38.40;;;18.20;;
4915;SDS011;70796;52.406;13.230;2024-03-08T01:36:30;33.43;;;18.73;;
4915;SDS011;70796;52.406;13.230;2024-03-08T01:38:56;36.37;;;19.27;;
4915;SDS011;70796;52.406;13.230;2024-03-08T01:41:24;37.13;;;19.57;;
4915;SDS011;70796;52.406;13.230;2024-03-08T01:43:50;36.20;;;19.13;;
4915;SDS011;70796;52.406;13.230;2024-03-08T01:46:17;38.87;;;20.77;;
4915;SDS011;70796;52.406;13.230;2024-03-08T01:48:46;36.07;;;18.63;;
4915;SDS011;70796;52.406;13.230;2024-03-08T01:51:12;35.17;;;18.60;;
4915;SDS011;70796;52.406;13.230;2024-03-08T01:53:41;39.63;;;18.63;;
4915;SDS011;70796;52.406;13.230;2024-03-08T01:56:09;34.93;;;18.97;;
4915;SDS011;70796;52.406;13.230;2024-03-08T01:58:35;37.10;;;20.60;;
4915;SDS011;70796;52.406;13.230;2024-03-08T02:01:04;43.47;;;20.10;;
4915;SDS011;70796;52.406;13.230;2024-03-08T02:03:31;35.33;;;18.67;;
4915;SDS011;70796;52.406;13.230;2024-03-08T02:05:58;36.23;;;19.00;;
4915;SDS011;70796;52.406;13.230;2024-03-08T02:08:24;41.33;;;20.53;;
4915;SDS011;70796;52.406;13.230;2024-03-08T02:10:51;35.13;;;19.57;;
4915;SDS011;70796;52.406;13.230;2024-03-08T02:13:18;44.50;;;20.47;;
4915;SDS011;70796;52.406;13.230;2024-03-08T02:15:58;36.73;;;19.70;;
4915;SDS011;70796;52.406;13.230;2024-03-08T02:18:25;41.47;;;20.80;;
4915;SDS011;70796;52.406;13.230;2024-03-08T02:20:53;37.10;;;19.10;;
4915;SDS011;70796;52.406;13.230;2024-03-08T02:23:26;39.00;;;18.50;;
4915;SDS011;70796;52.406;13.230;2024-03-08T02:25:54;36.33;;;19.53;;
4915;SDS011;70796;52.406;13.230;2024-03-08T02:28:22;37.77;;;18.50;;
4915;SDS011;70796;52.406;13.230;2024-03-08T02:30:52;39.17;;;20.60;;
4915;SDS011;70796;52.406;13.230;2024-03-08T02:33:23;34.73;;;19.23;;
4915;SDS011;70796;52.406;13.230;2024-03-08T02:35:50;39.03;;;20.23;;
4915;SDS011;70796;52.406;13.230;2024-03-08T02:38:21;39.93;;;21.80;;
4915;SDS011;70796;52.406;13.230;2024-03-08T02:40:49;38.90;;;19.67;;
4915;SDS011;70796;52.406;13.230;2024-03-08T02:43:17;38.17;;;20.23;;
4915;SDS011;70796;52.406;13.230;2024-03-08T02:45:44;38.50;;;20.10;;
4915;SDS011;70796;52.406;13.230;2024-03-08T02:48:14;40.03;;;20.00;;
4915;SDS011;70796;52.406;13.230;2024-03-08T02:50:44;39.83;;;19.73;;
4915;SDS011;70796;52.406;13.230;2024-03-08T02:53:12;41.00;;;21.07;;
4915;SDS011;70796;52.406;13.230;2024-03-08T02:55:40;40.50;;;20.90;;
4915;SDS011;70796;52.406;13.230;2024-03-08T02:58:09;36.50;;;19.20;;
4915;SDS011;70796;52.406;13.230;2024-03-08T03:00:37;36.63;;;19.77;;
4915;SDS011;70796;52.406;13.230;2024-03-08T03:03:05;44.10;;;20.43;;
4915;SDS011;70796;52.406;13.230;2024-03-08T03:05:33;45.73;;;21.40;;
4915;SDS011;70796;52.406;13.230;2024-03-08T03:08:03;36.73;;;18.93;;
4915;SDS011;70796;52.406;13.230;2024-03-08T03:10:36;43.70;;;20.83;;
4915;SDS011;70796;52.406;13.230;2024-03-08T03:13:02;40.30;;;19.63;;
4915;SDS011;70796;52.406;13.230;2024-03-08T03:15:31;36.70;;;19.93;;
4915;SDS011;70796;52.406;13.230;2024-03-08T03:17:57;40.70;;;20.33;;
4915;SDS011;70796;52.406;13.230;2024-03-08T03:20:24;42.60;;;20.70;;
4915;SDS011;70796;52.406;13.230;2024-03-08T03:22:59;41.50;;;21.23;;
4915;SDS011;70796;52.406;13.230;2024-03-08T03:25:27;35.63;;;19.93;;
4915;SDS011;70796;52.406;13.230;2024-03-08T03:28:03;40.00;;;19.20;;
4915;SDS011;70796;52.406;13.230;2024-03-08T03:30:30;39.37;;;18.87;;
4915;SDS011;70796;52.406;13.230;2024-03-08T03:33:00;42.90;;;20.60;;
4915;SDS011;70796;52.406;13.230;2024-03-08T03:35:28;36.87;;;19.43;;
4915;SDS011;70796;52.406;13.230;2024-03-08T03:37:55;38.87;;;21.03;;
4915;SDS011;70796;52.406;13.230;2024-03-08T03:40:37;33.93;;;18.40;;
4915;SDS011;70796;52.406;13.230;2024-03-08T03:43:04;36.53;;;19.73;;
4915;SDS011;70796;52.406;13.230;2024-03-08T03:45:31;35.67;;;18.57;;
4915;SDS011;70796;52.406;13.230;2024-03-08T03:48:03;38.33;;;19.70;;
4915;SDS011;70796;52.406;13.230;2024-03-08T03:50:31;36.70;;;20.33;;
4915;SDS011;70796;52.406;13.230;2024-03-08T03:53:01;41.47;;;19.80;;
4915;SDS011;70796;52.406;13.230;2024-03-08T03:55:29;40.50;;;19.00;;
4915;SDS011;70796;52.406;13.230;2024-03-08T03:57:55;45.83;;;20.43;;
4915;SDS011;70796;52.406;13.230;2024-03-08T04:00:21;45.63;;;19.33;;
4915;SDS011;70796;52.406;13.230;2024-03-08T04:02:49;41.53;;;19.50;;
4915;SDS011;70796;52.406;13.230;2024-03-08T04:05:17;35.10;;;18.13;;
4915;SDS011;70796;52.406;13.230;2024-03-08T04:07:45;38.77;;;18.93;;
4915;SDS011;70796;52.406;13.230;2024-03-08T04:10:11;40.67;;;19.20;;
4915;SDS011;70796;52.406;13.230;2024-03-08T04:12:38;38.70;;;19.47;;
4915;SDS011;70796;52.406;13.230;2024-03-08T04:15:04;38.90;;;20.77;;
4915;SDS011;70796;52.406;13.230;2024-03-08T04:17:33;42.23;;;20.00;;
4915;SDS011;70796;52.406;13.230;2024-03-08T04:20:03;43.63;;;20.37;;
4915;SDS011;70796;52.406;13.230;2024-03-08T04:22:37;42.63;;;19.57;;
4915;SDS011;70796;52.406;13.230;2024-03-08T04:25:05;40.50;;;19.90;;
4915;SDS011;70796;52.406;13.230;2024-03-08T04:27:33;45.17;;;21.97;;
4915;SDS011;70796;52.406;13.230;2024-03-08T04:30:00;41.17;;;21.80;;
4915;SDS011;70796;52.406;13.230;2024-03-08T04:32:27;37.80;;;19.97;;
4915;SDS011;70796;52.406;13.230;2024-03-08T04:34:56;36.53;;;19.33;;
4915;SDS011;70796;52.406;13.230;2024-03-08T04:37:23;36.53;;;19.07;;
4915;SDS011;70796;52.406;13.230;2024-03-08T04:39:51;42.07;;;20.40;;
4915;SDS011;70796;52.406;13.230;2024-03-08T04:42:18;38.60;;;19.57;;
4915;SDS011;70796;52.406;13.230;2024-03-08T04:44:44;43.20;;;20.33;;
4915;SDS011;70796;52.406;13.230;2024-03-08T04:47:11;45.17;;;21.23;;
4915;SDS011;70796;52.406;13.230;2024-03-08T04:49:38;42.17;;;21.93;;
4915;SDS011;70796;52.406;13.230;2024-03-08T04:52:04;39.57;;;20.87;;
4915;SDS011;70796;52.406;13.230;2024-03-08T04:54:30;44.60;;;21.37;;
4915;SDS011;70796;52.406;13.230;2024-03-08T04:56:57;38.17;;;20.70;;
4915;SDS011;70796;52.406;13.230;2024-03-08T04:59:27;44.67;;;21.47;;
4915;SDS011;70796;52.406;13.230;2024-03-08T05:01:54;45.10;;;21.90;;
4915;SDS011;70796;52.406;13.230;2024-03-08T05:04:23;41.27;;;21.80;;
4915;SDS011;70796;52.406;13.230;2024-03-08T05:06:50;45.20;;;21.10;;
4915;SDS011;70796;52.406;13.230;2024-03-08T05:09:16;43.60;;;20.63;;
4915;SDS011;70796;52.406;13.230;2024-03-08T05:11:46;49.77;;;21.80;;
4915;SDS011;70796;52.406;13.230;2024-03-08T05:14:13;43.03;;;21.47;;
4915;SDS011;70796;52.406;13.230;2024-03-08T05:16:43;41.20;;;21.10;;
4915;SDS011;70796;52.406;13.230;2024-03-08T05:19:22;45.03;;;21.57;;
4915;SDS011;70796;52.406;13.230;2024-03-08T05:21:49;35.63;;;20.00;;
4915;SDS011;70796;52.406;13.230;2024-03-08T05:24:16;39.13;;;20.83;;
4915;SDS011;70796;52.406;13.230;2024-03-08T05:26:44;44.13;;;21.60;;
4915;SDS011;70796;52.406;13.230;2024-03-08T05:29:11;46.30;;;21.57;;
4915;SDS011;70796;52.406;13.230;2024-03-08T05:31:43;41.73;;;21.37;;
4915;SDS011;70796;52.406;13.230;2024-03-08T05:34:14;44.43;;;20.07;;
4915;SDS011;70796;52.406;13.230;2024-03-08T05:36:42;42.50;;;22.10;;
4915;SDS011;70796;52.406;13.230;2024-03-08T05:39:11;40.13;;;21.40;;
4915;SDS011;70796;52.406;13.230;2024-03-08T05:41:38;44.63;;;21.90;;
4915;SDS011;70796;52.406;13.230;2024-03-08T05:44:05;46.50;;;22.73;;
4915;SDS011;70796;52.406;13.230;2024-03-08T05:46:32;47.50;;;23.00;;
4915;SDS011;70796;52.406;13.230;2024-03-08T05:48:58;43.63;;;22.97;;
4915;SDS011;70796;52.406;13.230;2024-03-08T05:51:25;45.57;;;23.30;;
4915;SDS011;70796;52.406;13.230;2024-03-08T05:53:54;56.20;;;24.70;;
4915;SDS011;70796;52.406;13.230;2024-03-08T05:56:22;48.33;;;23.60;;
4915;SDS011;70796;52.406;13.230;2024-03-08T05:58:50;47.50;;;23.10;;
4915;SDS011;70796;52.406;13.230;2024-03-08T06:01:16;51.40;;;24.37;;
4915;SDS011;70796;52.406;13.230;2024-03-08T06:03:42;48.47;;;24.00;;
4915;SDS011;70796;52.406;13.230;2024-03-08T06:06:13;46.50;;;22.53;;
4915;SDS011;70796;52.406;13.230;2024-03-08T06:08:42;50.53;;;25.30;;
4915;SDS011;70796;52.406;13.230;2024-03-08T06:11:09;49.17;;;24.10;;
4915;SDS011;70796;52.406;13.230;2024-03-08T06:13:36;56.00;;;26.07;;
4915;SDS011;70796;52.406;13.230;2024-03-08T06:16:02;57.23;;;25.40;;
4915;SDS011;70796;52.406;13.230;2024-03-08T06:18:30;50.47;;;25.57;;
4915;SDS011;70796;52.406;13.230;2024-03-08T06:20:58;50.83;;;24.93;;
4915;SDS011;70796;52.406;13.230;2024-03-08T06:23:25;48.73;;;23.90;;
4915;SDS011;70796;52.406;13.230;2024-03-08T06:25:53;54.87;;;25.00;;
4915;SDS011;70796;52.406;13.230;2024-03-08T06:28:20;54.57;;;24.60;;
4915;SDS011;70796;52.406;13.230;2024-03-08T06:30:46;50.60;;;24.70;;
4915;SDS011;70796;52.406;13.230;2024-03-08T06:33:13;55.87;;;25.40;;
4915;SDS011;70796;52.406;13.230;2024-03-08T06:35:39;52.47;;;27.27;;
4915;SDS011;70796;52.406;13.230;2024-03-08T06:38:05;57.33;;;26.27;;
4915;SDS011;70796;52.406;13.230;2024-03-08T06:40:32;49.57;;;23.87;;
4915;SDS011;70796;52.406;13.230;2024-03-08T06:42:58;53.80;;;26.33;;
4915;SDS011;70796;52.406;13.230;2024-03-08T06:45:25;47.33;;;24.57;;
4915;SDS011;70796;52.406;13.230;2024-03-08T06:47:51;47.13;;;25.27;;
4915;SDS011;70796;52.406;13.230;2024-03-08T06:50:18;52.00;;;25.17;;
4915;SDS011;70796;52.406;13.230;2024-03-08T06:52:44;47.90;;;23.77;;
4915;SDS011;70796;52.406;13.230;2024-03-08T06:55:14;48.37;;;24.10;;
4915;SDS011;70796;52.406;13.230;2024-03-08T06:57:40;44.13;;;22.77;;
4915;SDS011;70796;52.406;13.230;2024-03-08T07:00:07;57.10;;;24.33;;
4915;SDS011;70796;52.406;13.230;2024-03-08T07:02:40;42.83;;;23.00;;
4915;SDS011;70796;52.406;13.230;2024-03-08T07:05:08;42.57;;;20.77;;
4915;SDS011;70796;52.406;13.230;2024-03-08T07:07:37;46.37;;;22.70;;
4915;SDS011;70796;52.406;13.230;2024-03-08T07:10:03;48.83;;;22.03;;
4915;SDS011;70796;52.406;13.230;2024-03-08T07:12:30;43.37;;;20.57;;
4915;SDS011;70796;52.406;13.230;2024-03-08T07:14:57;46.70;;;22.83;;
4915;SDS011;70796;52.406;13.230;2024-03-08T07:17:23;40.17;;;21.53;;
4915;SDS011;70796;52.406;13.230;2024-03-08T07:19:50;49.47;;;21.60;;
4915;SDS011;70796;52.406;13.230;2024-03-08T07:22:17;46.47;;;22.47;;
4915;SDS011;70796;52.406;13.230;2024-03-08T07:24:45;40.17;;;21.40;;
4915;SDS011;70796;52.406;13.230;2024-03-08T07:27:14;40.17;;;19.83;;
4915;SDS011;70796;52.406;13.230;2024-03-08T07:29:41;42.20;;;21.10;;
4915;SDS011;70796;52.406;13.230;2024-03-08T07:32:08;40.00;;;20.23;;
4915;SDS011;70796;52.406;13.230;2024-03-08T07:34:48;37.60;;;19.83;;
4915;SDS011;70796;52.406;13.230;2024-03-08T07:37:17;44.23;;;19.40;;
4915;SDS011;70796;52.406;13.230;2024-03-08T07:39:43;35.27;;;20.80;;
4915;SDS011;70796;52.406;13.230;2024-03-08T07:42:10;39.13;;;18.17;;
4915;SDS011;70796;52.406;13.230;2024-03-08T07:44:38;37.37;;;19.37;;
4915;SDS011;70796;52.406;13.230;2024-03-08T07:47:05;38.93;;;19.33;;
4915;SDS011;70796;52.406;13.230;2024-03-08T07:49:33;43.97;;;21.13;;
4915;SDS011;70796;52.406;13.230;2024-03-08T07:52:02;44.57;;;20.60;;
4915;SDS011;70796;52.406;13.230;2024-03-08T07:54:30;40.97;;;20.73;;
4915;SDS011;70796;52.406;13.230;2024-03-08T07:56:57;37.00;;;19.63;;
4915;SDS011;70796;52.406;13.230;2024-03-08T07:59:24;38.10;;;20.30;;
4915;SDS011;70796;52.406;13.230;2024-03-08T08:01:50;39.93;;;22.10;;
4915;SDS011;70796;52.406;13.230;2024-03-08T08:04:17;35.57;;;19.90;;
4915;SDS011;70796;52.406;13.230;2024-03-08T08:06:45;36.93;;;19.17;;
4915;SDS011;70796;52.406;13.230;2024-03-08T08:09:11;32.83;;;18.37;;
4915;SDS011;70796;52.406;13.230;2024-03-08T08:11:41;35.73;;;20.67;;
4915;SDS011;70796;52.406;13.230;2024-03-08T08:14:10;42.00;;;20.30;;
4915;SDS011;70796;52.406;13.230;2024-03-08T08:16:37;41.73;;;20.50;;
4915;SDS011;70796;52.406;13.230;2024-03-08T08:19:04;39.83;;;19.13;;
4915;SDS011;70796;52.406;13.230;2024-03-08T08:21:34;42.90;;;18.60;;
4915;SDS011;70796;52.406;13.230;2024-03-08T08:24:03;35.50;;;19.37;;
4915;SDS011;70796;52.406;13.230;2024-03-08T08:26:30;36.83;;;21.90;;
4915;SDS011;70796;52.406;13.230;2024-03-08T08:29:02;34.77;;;19.73;;
4915;SDS011;70796;52.406;13.230;2024-03-08T08:31:29;35.03;;;17.77;;
4915;SDS011;70796;52.406;13.230;2024-03-08T08:33:58;37.33;;;20.70;;
4915;SDS011;70796;52.406;13.230;2024-03-08T08:36:25;39.07;;;19.97;;
4915;SDS011;70796;52.406;13.230;2024-03-08T08:38:52;37.80;;;19.93;;
4915;SDS011;70796;52.406;13.230;2024-03-08T08:41:20;41.03;;;20.27;;
4915;SDS011;70796;52.406;13.230;2024-03-08T08:43:48;30.17;;;18.67;;
4915;SDS011;70796;52.406;13.230;2024-03-08T08:46:28;34.33;;;19.37;;
4915;SDS011;70796;52.406;13.230;2024-03-08T08:48:55;33.63;;;18.23;;
4915;SDS011;70796;52.406;13.230;2024-03-08T08:51:22;35.77;;;19.43;;
4915;SDS011;70796;52.406;13.230;2024-03-08T08:53:50;30.37;;;17.97;;
4915;SDS011;70796;52.406;13.230;2024-03-08T08:56:16;29.97;;;17.67;;
4915;SDS011;70796;52.406;13.230;2024-03-08T08:58:45;32.37;;;17.67;;
4915;SDS011;70796;52.406;13.230;2024-03-08T09:01:11;37.17;;;19.87;;
4915;SDS011;70796;52.406;13.230;2024-03-08T09:03:38;35.53;;;18.43;;
4915;SDS011;70796;52.406;13.230;2024-03-08T09:06:07;31.57;;;16.97;;
4915;SDS011;70796;52.406;13.230;2024-03-08T09:08:36;26.70;;;16.13;;
4915;SDS011;70796;52.406;13.230;2024-03-08T09:11:04;44.70;;;17.63;;
4915;SDS011;70796;52.406;13.230;2024-03-08T09:13:32;29.93;;;17.00;;
4915;SDS011;70796;52.406;13.230;2024-03-08T09:16:02;30.27;;;17.27;;
4915;SDS011;70796;52.406;13.230;2024-03-08T09:18:35;31.60;;;16.60;;
4915;SDS011;70796;52.406;13.230;2024-03-08T09:21:02;30.10;;;17.10;;
4915;SDS011;70796;52.406;13.230;2024-03-08T09:23:30;30.80;;;16.80;;
4915;SDS011;70796;52.406;13.230;2024-03-08T09:25:57;32.07;;;18.03;;
4915;SDS011;70796;52.406;13.230;2024-03-08T09:28:24;30.67;;;16.70;;
4915;SDS011;70796;52.406;13.230;2024-03-08T09:30:51;35.80;;;17.17;;
4915;SDS011;70796;52.406;13.230;2024-03-08T09:33:26;29.47;;;15.50;;
4915;SDS011;70796;52.406;13.230;2024-03-08T09:35:54;25.27;;;14.60;;
4915;SDS011;70796;52.406;13.230;2024-03-08T09:38:20;31.17;;;16.40;;
4915;SDS011;70796;52.406;13.230;2024-03-08T09:40:47;30.90;;;16.70;;
4915;SDS011;70796;52.406;13.230;2024-03-08T09:43:14;37.30;;;16.03;;
4915;SDS011;70796;52.406;13.230;2024-03-08T09:45:40;27.23;;;15.17;;
4915;SDS011;70796;52.406;13.230;2024-03-08T09:48:11;30.53;;;16.30;;
4915;SDS011;70796;52.406;13.230;2024-03-08T09:50:40;28.80;;;16.40;;
4915;SDS011;70796;52.406;13.230;2024-03-08T09:53:07;30.33;;;15.37;;
4915;SDS011;70796;52.406;13.230;2024-03-08T09:55:36;32.30;;;17.73;;
4915;SDS011;70796;52.406;13.230;2024-03-08T09:58:07;33.60;;;17.70;;
4915;SDS011;70796;52.406;13.230;2024-03-08T10:01:03;38.83;;;15.87;;
4915;SDS011;70796;52.406;13.230;2024-03-08T10:03:31;34.93;;;17.83;;
4915;SDS011;70796;52.406;13.230;2024-03-08T10:06:01;28.60;;;16.57;;
4915;SDS011;70796;52.406;13.230;2024-03-08T10:08:28;24.80;;;15.13;;
4915;SDS011;70796;52.406;13.230;2024-03-08T10:10:57;29.50;;;17.10;;
4915;SDS011;70796;52.406;13.230;2024-03-08T10:13:25;23.90;;;13.70;;
4915;SDS011;70796;52.406;13.230;2024-03-08T10:15:53;29.70;;;12.90;;
4915;SDS011;70796;52.406;13.230;2024-03-08T10:18:20;28.83;;;15.77;;
4915;SDS011;70796;52.406;13.230;2024-03-08T10:21:01;29.50;;;16.17;;
4915;SDS011;70796;52.406;13.230;2024-03-08T10:23:30;26.40;;;14.90;;
4915;SDS011;70796;52.406;13.230;2024-03-08T10:25:57;26.93;;;15.23;;
4915;SDS011;70796;52.406;13.230;2024-03-08T10:28:25;29.53;;;15.67;;
4915;SDS011;70796;52.406;13.230;2024-03-08T10:30:52;27.60;;;14.03;;
4915;SDS011;70796;52.406;13.230;2024-03-08T10:33:18;39.03;;;17.20;;
4915;SDS011;70796;52.406;13.230;2024-03-08T10:35:49;28.97;;;16.57;;
4915;SDS011;70796;52.406;13.230;2024-03-08T10:38:15;25.70;;;13.87;;
4915;SDS011;70796;52.406;13.230;2024-03-08T10:40:45;29.77;;;15.50;;
4915;SDS011;70796;52.406;13.230;2024-03-08T10:43:14;26.17;;;15.07;;
4915;SDS011;70796;52.406;13.230;2024-03-08T10:45:55;28.80;;;15.30;;
4915;SDS011;70796;52.406;13.230;2024-03-08T10:48:28;28.80;;;15.60;;
4915;SDS011;70796;52.406;13.230;2024-03-08T10:51:04;25.77;;;14.10;;
4915;SDS011;70796;52.406;13.230;2024-03-08T10:53:37;22.37;;;13.43;;
4915;SDS011;70796;52.406;13.230;2024-03-08T10:56:07;24.90;;;14.43;;
4915;SDS011;70796;52.406;13.230;2024-03-08T10:58:39;26.47;;;15.87;;
4915;SDS011;70796;52.406;13.230;2024-03-08T11:01:06;28.27;;;14.60;;
4915;SDS011;70796;52.406;13.230;2024-03-08T11:06:08;24.30;;;14.37;;
4915;SDS011;70796;52.406;13.230;2024-03-08T11:08:35;26.73;;;14.47;;
4915;SDS011;70796;52.406;13.230;2024-03-08T11:11:06;27.27;;;13.57;;
4915;SDS011;70796;52.406;13.230;2024-03-08T11:14:03;22.93;;;13.80;;
4915;SDS011;70796;52.406;13.230;2024-03-08T11:19:05;26.60;;;13.87;;
4915;SDS011;70796;52.406;13.230;2024-03-08T11:21:37;22.83;;;15.03;;
4915;SDS011;70796;52.406;13.230;2024-03-08T11:24:08;25.30;;;14.20;;
4915;SDS011;70796;52.406;13.230;2024-03-08T11:26:42;25.73;;;14.80;;
4915;SDS011;70796;52.406;13.230;2024-03-08T11:32:16;24.03;;;13.70;;
4915;SDS011;70796;52.406;13.230;2024-03-08T11:34:46;25.80;;;13.93;;
4915;SDS011;70796;52.406;13.230;2024-03-08T11:37:15;24.87;;;14.30;;
4915;SDS011;70796;52.406;13.230;2024-03-08T11:42:15;21.97;;;13.73;;
4915;SDS011;70796;52.406;13.230;2024-03-08T11:44:44;24.50;;;13.53;;
4915;SDS011;70796;52.406;13.230;2024-03-08T11:47:15;27.87;;;15.20;;
4915;SDS011;70796;52.406;13.230;2024-03-08T11:49:47;25.43;;;15.20;;
4915;SDS011;70796;52.406;13.230;2024-03-08T11:52:15;25.17;;;14.67;;
4915;SDS011;70796;52.406;13.230;2024-03-08T11:54:51;25.67;;;14.60;;
4915;SDS011;70796;52.406;13.230;2024-03-08T11:57:24;24.00;;;13.20;;
4915;SDS011;70796;52.406;13.230;2024-03-08T11:59:51;22.80;;;13.20;;
4915;SDS011;70796;52.406;13.230;2024-03-08T12:02:23;23.57;;;12.30;;
4915;SDS011;70796;52.406;13.230;2024-03-08T12:04:59;25.67;;;14.63;;
4915;SDS011;70796;52.406;13.230;2024-03-08T12:07:27;26.43;;;13.10;;
4915;SDS011;70796;52.406;13.230;2024-03-08T12:10:19;21.70;;;12.07;;
4915;SDS011;70796;52.406;13.230;2024-03-08T12:12:49;18.23;;;12.07;;
4915;SDS011;70796;52.406;13.230;2024-03-08T12:15:18;21.33;;;11.50;;
4915;SDS011;70796;52.406;13.230;2024-03-08T12:17:47;20.67;;;12.17;;
4915;SDS011;70796;52.406;13.230;2024-03-08T12:20:16;22.57;;;11.97;;
4915;SDS011;70796;52.406;13.230;2024-03-08T12:22:51;21.40;;;12.10;;
4915;SDS011;70796;52.406;13.230;2024-03-08T12:25:20;17.33;;;10.93;;
4915;SDS011;70796;52.406;13.230;2024-03-08T12:27:48;21.47;;;11.73;;
4915;SDS011;70796;52.406;13.230;2024-03-08T12:30:25;26.07;;;11.70;;
4915;SDS011;70796;52.406;13.230;2024-03-08T12:32:58;19.80;;;11.00;;
4915;SDS011;70796;52.406;13.230;2024-03-08T12:35:26;19.40;;;11.23;;
4915;SDS011;70796;52.406;13.230;2024-03-08T12:37:54;19.20;;;10.27;;
4915;SDS011;70796;52.406;13.230;2024-03-08T12:40:26;22.33;;;11.97;;
4915;SDS011;70796;52.406;13.230;2024-03-08T12:42:58;19.53;;;10.67;;
4915;SDS011;70796;52.406;13.230;2024-03-08T12:45:24;22.87;;;11.50;;
4915;SDS011;70796;52.406;13.230;2024-03-08T12:47:51;19.47;;;11.70;;
4915;SDS011;70796;52.406;13.230;2024-03-08T12:50:19;22.53;;;10.17;;
4915;SDS011;70796;52.406;13.230;2024-03-08T12:52:47;19.37;;;11.13;;
4915;SDS011;70796;52.406;13.230;2024-03-08T12:55:19;19.53;;;11.27;;
4915;SDS011;70796;52.406;13.230;2024-03-08T12:57:46;20.83;;;11.23;;
4915;SDS011;70796;52.406;13.230;2024-03-08T13:00:13;20.40;;;11.83;;
4915;SDS011;70796;52.406;13.230;2024-03-08T13:02:45;19.13;;;10.97;;
4915;SDS011;70796;52.406;13.230;2024-03-08T13:05:13;21.80;;;11.40;;
4915;SDS011;70796;52.406;13.230;2024-03-08T13:07:43;19.60;;;10.70;;
4915;SDS011;70796;52.406;13.230;2024-03-08T13:10:13;17.00;;;10.40;;
4915;SDS011;70796;52.406;13.230;2024-03-08T13:12:44;22.80;;;11.20;;
4915;SDS011;70796;52.406;13.230;2024-03-08T13:15:11;14.53;;;9.17;;
4915;SDS011;70796;52.406;13.230;2024-03-08T13:17:42;18.33;;;10.60;;
4915;SDS011;70796;52.406;13.230;2024-03-08T13:20:10;18.07;;;11.00;;
4915;SDS011;70796;52.406;13.230;2024-03-08T13:22:47;19.63;;;10.83;;
4915;SDS011;70796;52.406;13.230;2024-03-08T13:25:13;17.40;;;10.70;;
4915;SDS011;70796;52.406;13.230;2024-03-08T13:27:42;16.00;;;9.70;;
4915;SDS011;70796;52.406;13.230;2024-03-08T13:30:10;16.90;;;10.40;;
4915;SDS011;70796;52.406;13.230;2024-03-08T13:32:42;19.27;;;10.13;;
4915;SDS011;70796;52.406;13.230;2024-03-08T13:35:11;17.07;;;9.67;;
4915;SDS011;70796;52.406;13.230;2024-03-08T13:37:41;17.47;;;10.73;;
4915;SDS011;70796;52.406;13.230;2024-03-08T13:40:09;17.07;;;9.30;;
4915;SDS011;70796;52.406;13.230;2024-03-08T13:42:46;16.27;;;9.20;;
4915;SDS011;70796;52.406;13.230;2024-03-08T13:45:13;12.63;;;8.50;;
4915;SDS011;70796;52.406;13.230;2024-03-08T13:47:48;19.37;;;9.60;;
4915;SDS011;70796;52.406;13.230;2024-03-08T13:50:17;18.90;;;9.80;;
4915;SDS011;70796;52.406;13.230;2024-03-08T13:52:48;19.00;;;10.33;;
4915;SDS011;70796;52.406;13.230;2024-03-08T13:55:20;18.00;;;8.93;;
4915;SDS011;70796;52.406;13.230;2024-03-08T13:57:49;14.97;;;9.73;;
4915;SDS011;70796;52.406;13.230;2024-03-08T14:00:17;18.90;;;10.60;;
4915;SDS011;70796;52.406;13.230;2024-03-08T14:02:46;19.63;;;10.83;;
4915;SDS011;70796;52.406;13.230;2024-03-08T14:05:14;15.83;;;10.20;;
4915;SDS011;70796;52.406;13.230;2024-03-08T14:07:43;17.67;;;11.60;;
4915;SDS011;70796;52.406;13.230;2024-03-08T14:10:12;18.00;;;11.57;;
4915;SDS011;70796;52.406;13.230;2024-03-08T14:12:38;19.73;;;9.80;;
4915;SDS011;70796;52.406;13.230;2024-03-08T14:15:06;20.80;;;10.37;;
4915;SDS011;70796;52.406;13.230;2024-03-08T14:17:33;18.60;;;10.60;;
4915;SDS011;70796;52.406;13.230;2024-03-08T14:19:59;21.90;;;12.00;;
4915;SDS011;70796;52.406;13.230;2024-03-08T14:22:26;16.30;;;9.90;;
4915;SDS011;70796;52.406;13.230;2024-03-08T14:24:53;20.77;;;9.83;;
4915;SDS011;70796;52.406;13.230;2024-03-08T14:27:22;19.23;;;10.13;;
4915;SDS011;70796;52.406;13.230;2024-03-08T14:29:49;15.77;;;9.57;;
4915;SDS011;70796;52.406;13.230;2024-03-08T14:32:16;15.43;;;9.20;;
4915;SDS011;70796;52.406;13.230;2024-03-08T14:34:45;14.93;;;9.50;;
4915;SDS011;70796;52.406;13.230;2024-03-08T14:37:12;14.20;;;9.77;;
4915;SDS011;70796;52.406;13.230;2024-03-08T14:39:40;18.93;;;10.23;;